Time;durP1;ratioP1;P1;durP2;ratioP2;P2;SDS_P1;SDS_P2;PMS_P1;PMS_P2;Temp;Humidity;BMP_temperature;BMP_pressure;BME280_temperature;BME280_humidity;BME280_pressure;Samples;Min_cycle;Max_cycle;Signal;HPM_P1;HPM_P2
2024/01/16 00:01:27;;;;;;;7.67;2.53;;;0.70;99.90;;;;;;4974757;28;20039;-84
2024/01/16 00:03:53;;;;;;;10.07;2.57;;;0.70;99.90;;;;;;4973231;28;20500;-81
2024/01/16 00:06:20;;;;;;;8.00;2.17;;;0.70;99.90;;;;;;4972987;28;20038;-84
2024/01/16 00:08:46;;;;;;;9.50;2.23;;;0.60;99.90;;;;;;4997078;28;20018;-79
2024/01/16 00:11:13;;;;;;;7.67;1.80;;;0.50;99.90;;;;;;4970147;28;20398;-82
2024/01/16 00:13:39;;;;;;;6.83;1.53;;;0.40;99.90;;;;;;4971558;28;20034;-81
2024/01/16 00:16:06;;;;;;;10.23;1.10;;;0.40;99.90;;;;;;4952616;28;20168;-85
2024/01/16 00:18:32;;;;;;;10.77;2.40;;;0.30;99.90;;;;;;4955125;28;20041;-79
2024/01/16 00:21:02;;;;;;;7.97;1.43;;;0.30;99.90;;;;;;4972010;28;20030;-83
2024/01/16 00:23:31;;;;;;;10.40;1.93;;;0.30;99.90;;;;;;4971168;28;20034;-83
2024/01/16 00:25:58;;;;;;;6.90;1.77;;;0.30;99.90;;;;;;5004192;28;20042;-80
2024/01/16 00:28:24;;;;;;;7.57;1.40;;;0.30;99.90;;;;;;4972221;28;20365;-79
2024/01/16 00:30:51;;;;;;;7.23;1.70;;;0.30;99.90;;;;;;4973558;28;20465;-82
2024/01/16 00:33:17;;;;;;;7.70;1.80;;;0.40;99.90;;;;;;4939330;28;20031;-82
2024/01/16 00:35:43;;;;;;;6.10;1.00;;;0.30;99.90;;;;;;4955903;28;20042;-81
2024/01/16 00:38:10;;;;;;;8.93;1.30;;;0.30;99.90;;;;;;4955092;28;20385;-87
2024/01/16 00:40:36;;;;;;;5.83;1.23;;;0.30;99.90;;;;;;5005930;28;20347;-85
2024/01/16 00:43:03;;;;;;;9.57;1.37;;;0.30;99.90;;;;;;4959069;28;20037;-85
2024/01/16 00:45:30;;;;;;;9.13;1.20;;;0.30;99.90;;;;;;4975158;28;20026;-81
2024/01/16 00:47:56;;;;;;;10.50;1.50;;;0.30;99.90;;;;;;4975284;28;20049;-85
2024/01/16 00:50:24;;;;;;;6.80;1.03;;;0.30;99.90;;;;;;4972812;28;20046;-85
2024/01/16 00:52:50;;;;;;;6.33;1.37;;;0.30;99.90;;;;;;5007092;28;20026;-85
2024/01/16 00:55:17;;;;;;;4.60;1.20;;;0.40;99.90;;;;;;5007289;28;20046;-79
2024/01/16 00:57:43;;;;;;;8.17;1.43;;;0.40;99.90;;;;;;5006208;28;20025;-82
2024/01/16 01:00:11;;;;;;;7.00;1.03;;;0.40;99.90;;;;;;5006163;28;20385;-79
2024/01/16 01:02:37;;;;;;;4.07;0.60;;;0.50;99.90;;;;;;4957521;28;20038;-85
2024/01/16 01:05:04;;;;;;;5.50;0.67;;;0.50;99.90;;;;;;5008661;28;20190;-79
2024/01/16 01:07:31;;;;;;;6.73;1.10;;;0.60;99.90;;;;;;4994534;28;20061;-86
2024/01/16 01:09:57;;;;;;;7.20;1.33;;;0.60;99.90;;;;;;5008742;28;20026;-85
2024/01/16 01:12:23;;;;;;;7.93;1.10;;;0.60;99.90;;;;;;4991662;28;20042;-84
2024/01/16 01:14:50;;;;;;;4.53;0.97;;;0.60;99.90;;;;;;4976597;28;20094;-81
2024/01/16 01:17:16;;;;;;;7.33;1.00;;;0.60;99.90;;;;;;4959715;28;20030;-80
2024/01/16 01:19:43;;;;;;;4.87;0.90;;;0.60;99.90;;;;;;4991510;28;20034;-84
2024/01/16 01:22:09;;;;;;;5.20;0.70;;;0.60;99.90;;;;;;5007546;28;20026;-83
2024/01/16 01:24:35;;;;;;;10.97;1.03;;;0.50;99.90;;;;;;5007962;28;20046;-87
2024/01/16 01:27:02;;;;;;;4.67;0.80;;;0.50;99.90;;;;;;4992592;28;20027;-82
2024/01/16 01:29:29;;;;;;;10.87;2.00;;;0.50;99.90;;;;;;5007242;28;20042;-81
2024/01/16 01:31:55;;;;;;;6.63;1.20;;;0.40;99.90;;;;;;4991717;28;20034;-88
2024/01/16 01:34:21;;;;;;;10.93;1.37;;;0.40;99.90;;;;;;4976804;28;20606;-84
2024/01/16 01:36:48;;;;;;;5.83;0.87;;;0.40;99.90;;;;;;4975125;28;20034;-84
2024/01/16 01:39:14;;;;;;;5.20;0.80;;;0.30;99.90;;;;;;4970254;28;20400;-81
2024/01/16 01:41:41;;;;;;;4.97;0.80;;;0.30;99.90;;;;;;4954310;28;20038;-80
2024/01/16 01:44:07;;;;;;;4.73;1.03;;;0.30;99.90;;;;;;4974441;28;20043;-86
2024/01/16 01:46:35;;;;;;;5.03;1.03;;;0.20;99.90;;;;;;5008881;28;20040;-84
2024/01/16 01:49:03;;;;;;;3.80;1.00;;;0.20;99.90;;;;;;5008145;28;22424;-86
2024/01/16 01:51:29;;;;;;;10.00;1.17;;;0.20;99.90;;;;;;4973672;28;20030;-83
2024/01/16 01:53:58;;;;;;;6.57;1.00;;;0.20;99.90;;;;;;4974229;28;20030;-84
2024/01/16 01:56:27;;;;;;;6.07;1.43;;;0.10;99.90;;;;;;4990366;28;20034;-84
2024/01/16 01:58:56;;;;;;;4.90;1.50;;;0.10;99.90;;;;;;4955295;28;20037;-82
2024/01/16 02:01:24;;;;;;;9.23;1.40;;;0.00;99.90;;;;;;4955214;28;20034;-82
2024/01/16 02:03:52;;;;;;;4.93;0.80;;;0.00;99.90;;;;;;4972476;28;20030;-84
2024/01/16 02:06:18;;;;;;;6.03;1.20;;;0.00;99.90;;;;;;4957818;28;20042;-84
2024/01/16 02:08:45;;;;;;;3.40;0.80;;;-0.10;99.90;;;;;;4956967;28;20393;-84
2024/01/16 02:11:12;;;;;;;5.63;1.10;;;-0.10;99.90;;;;;;4992719;28;20030;-82
2024/01/16 02:13:38;;;;;;;4.90;1.23;;;-0.10;99.90;;;;;;4977862;28;20038;-82
2024/01/16 02:16:05;;;;;;;4.07;0.90;;;-0.10;99.90;;;;;;4977297;28;20030;-83
2024/01/16 02:18:32;;;;;;;6.03;1.20;;;-0.20;99.90;;;;;;4977055;28;20046;-77
2024/01/16 02:21:02;;;;;;;4.33;0.90;;;-0.20;99.90;;;;;;5009499;28;20034;-82
2024/01/16 02:23:31;;;;;;;6.93;1.50;;;-0.20;99.90;;;;;;4960775;28;20034;-79
2024/01/16 02:25:57;;;;;;;4.57;0.90;;;-0.20;99.90;;;;;;5009769;28;20278;-84
2024/01/16 02:28:23;;;;;;;5.50;1.20;;;-0.20;99.90;;;;;;4978671;28;20027;-86
2024/01/16 02:30:49;;;;;;;11.00;1.53;;;-0.20;99.90;;;;;;4978858;28;20026;-79
2024/01/16 02:33:16;;;;;;;6.27;1.40;;;-0.10;99.90;;;;;;5009934;28;20042;-85
2024/01/16 02:35:42;;;;;;;8.60;2.00;;;-0.10;99.90;;;;;;4975973;28;20050;-83
2024/01/16 02:38:08;;;;;;;9.10;1.50;;;0.00;99.90;;;;;;4976756;28;20034;-81
2024/01/16 02:40:35;;;;;;;6.17;1.57;;;0.00;99.90;;;;;;4976277;28;20034;-81
2024/01/16 02:43:01;;;;;;;11.33;2.33;;;0.10;99.90;;;;;;4955504;28;20026;-78
2024/01/16 02:45:28;;;;;;;12.47;3.17;;;0.20;99.90;;;;;;4979091;28;20034;-83
2024/01/16 02:47:55;;;;;;;9.10;3.90;;;0.20;99.90;;;;;;4974572;28;20050;-81
2024/01/16 02:50:21;;;;;;;11.37;3.73;;;0.30;99.90;;;;;;5009706;28;20262;-83
2024/01/16 02:52:47;;;;;;;12.20;4.20;;;0.40;99.90;;;;;;4979553;28;20057;-83
2024/01/16 02:55:14;;;;;;;13.23;4.33;;;0.40;99.90;;;;;;4996576;28;20314;-83
2024/01/16 02:57:41;;;;;;;10.53;3.93;;;0.40;99.90;;;;;;4966134;28;20077;-79
2024/01/16 03:00:08;;;;;;;7.27;3.50;;;0.50;99.90;;;;;;4980295;28;20042;-84
2024/01/16 03:02:34;;;;;;;8.77;3.90;;;0.50;99.90;;;;;;4961486;28;20038;-77
2024/01/16 03:05:05;;;;;;;6.33;3.73;;;0.60;99.90;;;;;;4994199;28;20032;-84
2024/01/16 03:07:32;;;;;;;6.77;3.77;;;0.60;99.90;;;;;;4979722;28;20030;-78
2024/01/16 03:09:58;;;;;;;8.67;4.40;;;0.60;99.90;;;;;;5009771;28;20041;-83
2024/01/16 03:12:24;;;;;;;12.93;3.93;;;0.60;99.90;;;;;;4944823;28;20201;-83
2024/01/16 03:14:53;;;;;;;13.17;5.20;;;0.70;99.90;;;;;;4959957;28;20042;-83
2024/01/16 03:17:19;;;;;;;19.97;5.00;;;0.70;99.90;;;;;;4988637;28;20030;-84
2024/01/16 03:19:46;;;;;;;9.40;4.80;;;0.70;99.90;;;;;;5008354;28;20033;-84
2024/01/16 03:22:12;;;;;;;15.80;4.93;;;0.70;99.90;;;;;;4977481;28;20046;-79
2024/01/16 03:24:39;;;;;;;7.80;4.30;;;0.70;99.90;;;;;;4976767;28;20189;-78
2024/01/16 03:27:05;;;;;;;12.23;4.57;;;0.70;99.90;;;;;;4941720;28;20366;-82
2024/01/16 03:29:33;;;;;;;10.23;4.07;;;0.70;99.90;;;;;;4975599;28;20046;-83
2024/01/16 03:32:00;;;;;;;8.33;4.50;;;0.80;99.90;;;;;;4957533;28;20281;-82
2024/01/16 03:34:27;;;;;;;12.83;4.30;;;0.70;99.90;;;;;;5009632;28;20030;-83
2024/01/16 03:36:54;;;;;;;13.90;4.73;;;0.80;99.90;;;;;;4975501;28;20034;-82
2024/01/16 03:39:20;;;;;;;7.40;3.57;;;0.80;99.90;;;;;;4991552;28;20046;-85
2024/01/16 03:41:46;;;;;;;6.30;3.13;;;0.80;99.90;;;;;;4978929;28;20481;-83
2024/01/16 03:44:13;;;;;;;10.47;3.30;;;0.80;99.90;;;;;;4991328;28;20465;-84
2024/01/16 03:46:39;;;;;;;8.57;3.40;;;0.80;99.90;;;;;;4992022;28;20045;-84
2024/01/16 03:49:05;;;;;;;11.00;4.60;;;0.80;99.90;;;;;;4975298;28;20808;-82
2024/01/16 03:51:33;;;;;;;13.73;5.27;;;0.80;99.90;;;;;;4991090;28;20045;-84
2024/01/16 03:53:59;;;;;;;8.40;4.70;;;0.80;99.90;;;;;;5008094;28;20036;-81
2024/01/16 03:56:25;;;;;;;14.93;6.47;;;0.90;99.90;;;;;;4942863;28;20046;-84
2024/01/16 03:58:52;;;;;;;15.50;7.57;;;0.90;99.90;;;;;;4974528;28;20030;-84
2024/01/16 04:01:18;;;;;;;16.13;9.53;;;0.90;99.90;;;;;;4960067;28;20034;-85
2024/01/16 04:03:45;;;;;;;16.77;8.00;;;0.90;99.90;;;;;;4990588;28;20038;-84
2024/01/16 04:06:17;;;;;;;12.57;7.80;;;0.90;99.90;;;;;;4975061;28;20038;-83
2024/01/16 04:08:44;;;;;;;17.70;8.80;;;0.90;99.90;;;;;;4976417;28;20035;-82
2024/01/16 04:11:14;;;;;;;10.90;7.13;;;0.90;99.90;;;;;;4974438;28;20045;-86
2024/01/16 04:13:41;;;;;;;15.30;8.27;;;0.90;99.90;;;;;;4975027;28;20058;-84
2024/01/16 04:16:08;;;;;;;16.53;7.40;;;0.90;99.90;;;;;;5007061;28;20203;-84
2024/01/16 04:18:40;;;;;;;16.40;6.53;;;0.90;99.90;;;;;;4990069;28;20313;-81
2024/01/16 04:21:06;;;;;;;19.53;7.90;;;0.90;99.90;;;;;;4953511;28;20023;-83
2024/01/16 04:23:33;;;;;;;13.53;7.10;;;0.90;99.90;;;;;;4974618;28;20038;-81
2024/01/16 04:25:59;;;;;;;12.27;5.73;;;0.90;99.90;;;;;;4957659;28;20046;-85
2024/01/16 04:28:26;;;;;;;11.60;6.40;;;0.90;99.90;;;;;;4985545;28;20043;-81
2024/01/16 04:30:53;;;;;;;13.90;5.90;;;0.90;99.90;;;;;;4973752;28;20042;-85
2024/01/16 04:33:19;;;;;;;13.20;5.50;;;0.90;99.90;;;;;;4971443;28;20046;-80
2024/01/16 04:35:46;;;;;;;10.53;5.17;;;0.90;99.90;;;;;;4974472;28;20495;-83
2024/01/16 04:38:12;;;;;;;8.90;4.17;;;0.90;99.90;;;;;;4941734;28;20049;-83
2024/01/16 04:40:38;;;;;;;8.13;4.17;;;0.90;99.90;;;;;;5006602;28;20038;-77
2024/01/16 04:43:05;;;;;;;7.47;4.30;;;0.90;99.90;;;;;;4976024;28;20270;-86
2024/01/16 04:45:31;;;;;;;10.63;5.37;;;0.90;99.90;;;;;;4990723;28;20046;-83
2024/01/16 04:47:58;;;;;;;8.30;4.03;;;0.90;99.90;;;;;;4958333;28;20497;-82
2024/01/16 04:50:31;;;;;;;10.43;3.93;;;0.90;99.90;;;;;;4974742;28;20060;-82
2024/01/16 04:53:01;;;;;;;9.13;4.00;;;1.00;99.90;;;;;;4991003;28;20049;-82
2024/01/16 04:55:29;;;;;;;6.77;2.50;;;0.90;99.90;;;;;;4988398;28;20033;-83
2024/01/16 04:57:57;;;;;;;11.53;5.20;;;0.90;99.90;;;;;;4978525;28;20034;-79
2024/01/16 05:00:23;;;;;;;10.17;3.83;;;0.90;99.90;;;;;;4980841;28;20360;-83
2024/01/16 05:02:51;;;;;;;12.80;4.73;;;0.90;99.90;;;;;;4990822;28;20045;-86
2024/01/16 05:05:17;;;;;;;8.23;4.20;;;0.80;99.90;;;;;;4959068;28;20039;-85
2024/01/16 05:07:44;;;;;;;8.77;4.10;;;0.80;99.90;;;;;;4958985;28;20034;-79
2024/01/16 05:10:14;;;;;;;8.20;4.13;;;0.80;99.90;;;;;;4975179;28;20281;-81
2024/01/16 05:12:41;;;;;;;5.83;3.50;;;0.80;99.90;;;;;;4942550;28;20039;-78
2024/01/16 05:15:08;;;;;;;9.07;5.93;;;0.80;99.90;;;;;;4975471;28;20039;-85
2024/01/16 05:17:35;;;;;;;6.23;3.90;;;0.80;99.90;;;;;;4956930;28;20026;-84
2024/01/16 05:20:05;;;;;;;9.03;4.67;;;0.90;99.90;;;;;;5006077;28;20033;-84
2024/01/16 05:22:31;;;;;;;14.07;6.83;;;0.80;99.90;;;;;;5006627;28;20022;-84
2024/01/16 05:25:00;;;;;;;11.53;5.57;;;0.90;99.90;;;;;;4958521;28;20053;-85
2024/01/16 05:27:27;;;;;;;9.53;4.70;;;0.90;99.90;;;;;;4972845;28;20329;-80
2024/01/16 05:29:53;;;;;;;13.47;6.57;;;0.90;99.90;;;;;;4973703;28;20041;-83
2024/01/16 05:32:19;;;;;;;11.90;7.30;;;0.90;99.90;;;;;;4957633;28;20391;-81
2024/01/16 05:34:46;;;;;;;12.40;6.47;;;0.90;99.90;;;;;;4973798;28;20365;-78
2024/01/16 05:37:13;;;;;;;12.90;7.33;;;0.90;99.90;;;;;;4989985;28;20046;-81
2024/01/16 05:39:40;;;;;;;13.63;8.80;;;1.00;99.90;;;;;;4974424;28;20022;-81
2024/01/16 05:42:06;;;;;;;13.23;8.80;;;1.00;99.90;;;;;;4973245;28;20030;-83
2024/01/16 05:44:33;;;;;;;20.23;10.07;;;1.00;99.90;;;;;;4958289;28;20429;-77
2024/01/16 05:46:59;;;;;;;15.57;8.00;;;0.90;99.90;;;;;;4978467;28;20034;-82
2024/01/16 05:49:25;;;;;;;11.13;7.10;;;0.90;99.90;;;;;;4977447;28;20030;-82
2024/01/16 05:51:52;;;;;;;10.67;6.33;;;0.90;99.90;;;;;;4993586;28;20370;-83
2024/01/16 05:54:19;;;;;;;18.40;7.70;;;0.90;99.90;;;;;;4977544;28;20034;-83
2024/01/16 05:56:45;;;;;;;16.27;6.63;;;0.90;99.90;;;;;;4992751;28;20049;-82
2024/01/16 05:59:11;;;;;;;11.93;5.80;;;0.90;99.90;;;;;;4978354;28;20069;-84
2024/01/16 06:01:38;;;;;;;9.93;5.33;;;0.90;99.90;;;;;;5010544;28;20501;-84
2024/01/16 06:04:07;;;;;;;14.03;5.03;;;0.90;99.90;;;;;;4993789;28;20454;-84
2024/01/16 06:06:33;;;;;;;10.13;4.80;;;0.90;99.90;;;;;;4979858;28;20049;-83
2024/01/16 06:09:04;;;;;;;11.10;4.10;;;0.90;99.90;;;;;;4978496;28;20034;-84
2024/01/16 06:11:38;;;;;;;12.13;3.70;;;0.90;99.90;;;;;;5009655;28;20053;-79
2024/01/16 06:14:04;;;;;;;5.03;2.83;;;0.90;99.90;;;;;;4978525;28;20041;-78
2024/01/16 06:16:30;;;;;;;4.73;2.40;;;0.90;99.90;;;;;;4959758;28;20041;-82
2024/01/16 06:18:57;;;;;;;8.03;2.33;;;0.90;99.90;;;;;;4960362;28;20074;-83
2024/01/16 06:21:24;;;;;;;11.43;2.20;;;1.00;99.90;;;;;;4977360;28;20034;-83
2024/01/16 06:23:50;;;;;;;8.77;2.40;;;1.00;99.90;;;;;;4952363;28;20030;-81
2024/01/16 06:26:17;;;;;;;12.17;2.50;;;0.90;99.90;;;;;;4974195;28;20030;-82
2024/01/16 06:28:43;;;;;;;8.38;2.10;;;0.90;99.90;;;;;;4976651;28;20046;-82
2024/01/16 06:31:11;;;;;;;8.15;2.28;;;1.00;99.90;;;;;;4975904;28;20074;-82
2024/01/16 06:33:38;;;;;;;10.13;2.47;;;0.90;99.90;;;;;;5008366;28;20022;-80
2024/01/16 06:36:05;;;;;;;6.17;2.27;;;0.90;99.90;;;;;;4975436;28;20046;-83
2024/01/16 06:38:31;;;;;;;9.73;2.80;;;0.90;99.90;;;;;;4976174;28;20019;-81
2024/01/16 06:40:58;;;;;;;12.73;2.90;;;1.00;99.90;;;;;;4976680;28;20406;-82
2024/01/16 06:43:25;;;;;;;9.07;2.50;;;0.90;99.90;;;;;;4976041;28;20465;-85
2024/01/16 06:45:51;;;;;;;9.17;2.90;;;1.00;99.90;;;;;;4977395;28;20049;-83
2024/01/16 06:48:17;;;;;;;15.10;3.60;;;1.00;99.90;;;;;;4977228;28;20412;-85
2024/01/16 06:50:44;;;;;;;8.60;3.15;;;1.00;99.90;;;;;;4978003;28;20485;-78
2024/01/16 06:53:10;;;;;;;9.83;3.20;;;1.00;99.90;;;;;;4984851;28;20026;-84
2024/01/16 06:55:36;;;;;;;13.30;3.10;;;1.00;99.90;;;;;;4980529;28;20026;-84
2024/01/16 06:58:03;;;;;;;11.20;3.17;;;1.00;99.90;;;;;;5009654;28;20042;-83
2024/01/16 07:00:29;;;;;;;8.23;2.63;;;1.00;99.90;;;;;;4977706;28;20034;-82
2024/01/16 07:02:56;;;;;;;10.17;2.90;;;1.00;99.90;;;;;;4961553;28;20038;-81
2024/01/16 07:05:22;;;;;;;7.32;2.50;;;1.00;99.90;;;;;;4989007;28;20034;-77
2024/01/16 07:07:49;;;;;;;9.53;2.63;;;1.00;99.90;;;;;;4944097;28;20655;-82
2024/01/16 07:10:18;;;;;;;10.67;3.90;;;1.00;99.90;;;;;;4974251;28;20042;-79
2024/01/16 07:12:45;;;;;;;8.43;3.50;;;1.00;99.90;;;;;;4991429;28;20061;-82
2024/01/16 07:15:11;;;;;;;8.33;2.53;;;1.00;99.90;;;;;;5009713;28;20489;-86
2024/01/16 07:17:38;;;;;;;9.63;3.05;;;1.00;99.90;;;;;;4943612;28;20026;-80
2024/01/16 07:20:05;;;;;;;10.50;4.23;;;1.00;99.90;;;;;;5008545;28;20465;-85
2024/01/16 07:22:31;;;;;;;12.37;4.20;;;1.00;99.90;;;;;;4992283;28;20029;-85
2024/01/16 07:24:57;;;;;;;13.30;5.70;;;1.00;99.90;;;;;;4977377;28;20038;-87
2024/01/16 07:27:24;;;;;;;12.67;5.53;;;1.00;99.90;;;;;;4961151;28;20612;-86
2024/01/16 07:29:50;;;;;;;12.37;4.70;;;1.00;99.90;;;;;;5008315;28;20033;-89
2024/01/16 07:32:17;;;;;;;12.80;5.00;;;0.90;99.90;;;;;;5008821;28;20037;-79
2024/01/16 07:34:44;;;;;;;12.30;5.53;;;1.00;99.90;;;;;;4992333;28;20486;-86
2024/01/16 07:37:10;;;;;;;14.53;5.10;;;1.00;99.90;;;;;;4976974;28;20030;-81
2024/01/16 07:39:36;;;;;;;9.73;3.70;;;1.00;99.90;;;;;;4992641;28;20042;-87
2024/01/16 07:42:04;;;;;;;10.97;4.80;;;1.00;99.90;;;;;;4958041;28;20377;-79
2024/01/16 07:44:30;;;;;;;10.73;4.20;;;1.00;99.90;;;;;;4976895;28;20038;-85
2024/01/16 07:46:57;;;;;;;10.97;5.17;;;1.00;99.90;;;;;;4976267;28;20037;-84
2024/01/16 07:49:23;;;;;;;16.23;5.83;;;1.00;99.90;;;;;;4991253;28;20037;-84
2024/01/16 07:51:50;;;;;;;15.20;6.50;;;1.00;99.90;;;;;;5007803;28;20532;-77
2024/01/16 07:54:16;;;;;;;17.70;5.67;;;1.00;99.90;;;;;;4991560;28;20041;-83
2024/01/16 07:56:43;;;;;;;12.60;6.83;;;1.00;99.90;;;;;;4958468;28;20038;-86
2024/01/16 07:59:09;;;;;;;20.07;9.17;;;1.00;99.90;;;;;;4974467;28;20484;-84
2024/01/16 08:01:35;;;;;;;17.07;8.17;;;1.00;99.90;;;;;;4958589;28;20030;-84
2024/01/16 08:04:02;;;;;;;19.03;8.90;;;1.00;99.90;;;;;;4958302;28;20035;-79
2024/01/16 08:06:28;;;;;;;14.33;8.43;;;1.00;99.90;;;;;;4967795;28;20485;-86
2024/01/16 08:08:55;;;;;;;21.90;10.13;;;1.00;99.90;;;;;;4973982;28;20053;-85
2024/01/16 08:11:21;;;;;;;23.53;9.67;;;1.00;99.90;;;;;;4958297;28;20026;-82
2024/01/16 08:13:48;;;;;;;19.27;10.47;;;1.10;99.90;;;;;;4991355;28;20099;-82
2024/01/16 08:16:14;;;;;;;19.13;10.57;;;1.10;99.90;;;;;;4974118;28;20038;-84
2024/01/16 08:18:40;;;;;;;21.93;10.73;;;1.10;99.90;;;;;;4959254;28;20042;-88
2024/01/16 08:21:07;;;;;;;23.47;13.10;;;1.00;99.90;;;;;;4978046;28;20286;-85
2024/01/16 08:23:34;;;;;;;25.67;13.17;;;1.10;99.90;;;;;;4975699;28;20038;-88
2024/01/16 08:26:01;;;;;;;24.57;14.90;;;1.10;99.90;;;;;;4990488;28;20405;-86
2024/01/16 08:28:27;;;;;;;28.77;14.43;;;1.10;99.90;;;;;;4990195;28;20043;-84
2024/01/16 08:30:54;;;;;;;30.40;14.13;;;1.10;99.90;;;;;;5007041;28;20034;-84
2024/01/16 08:33:21;;;;;;;20.93;14.47;;;1.10;99.90;;;;;;4991236;28;20033;-82
2024/01/16 08:35:48;;;;;;;27.73;14.80;;;1.10;99.90;;;;;;4990074;28;20610;-84
2024/01/16 08:38:14;;;;;;;27.97;14.60;;;1.10;99.90;;;;;;4975739;28;20030;-85
2024/01/16 08:40:41;;;;;;;24.90;15.70;;;1.10;99.90;;;;;;4974381;28;20030;-81
2024/01/16 08:43:07;;;;;;;25.23;14.33;;;1.10;99.90;;;;;;4942888;28;20057;-85
2024/01/16 08:45:34;;;;;;;26.40;17.13;;;1.10;99.90;;;;;;4975226;28;20382;-80
2024/01/16 08:48:00;;;;;;;29.30;17.47;;;1.10;99.90;;;;;;4979053;28;20034;-83
2024/01/16 08:50:26;;;;;;;30.37;17.30;;;1.10;99.90;;;;;;4980891;28;20033;-86
2024/01/16 08:52:53;;;;;;;25.43;16.20;;;1.10;99.90;;;;;;4993751;28;20037;-84
2024/01/16 08:55:19;;;;;;;25.50;14.87;;;1.10;99.90;;;;;;4994473;28;20504;-79
2024/01/16 08:57:46;;;;;;;25.17;14.60;;;1.10;99.90;;;;;;5011176;28;20034;-86
2024/01/16 09:00:12;;;;;;;23.37;15.00;;;1.10;99.90;;;;;;4979805;28;20058;-83
2024/01/16 09:02:39;;;;;;;23.87;13.60;;;1.10;99.90;;;;;;4959985;28;20046;-82
2024/01/16 09:05:06;;;;;;;25.90;14.47;;;1.10;99.90;;;;;;4958474;28;20385;-83
2024/01/16 09:07:32;;;;;;;25.10;14.33;;;1.10;99.90;;;;;;4972806;28;20026;-80
2024/01/16 09:09:58;;;;;;;20.90;12.27;;;1.10;99.90;;;;;;4974426;28;20041;-87
2024/01/16 09:12:26;;;;;;;20.70;11.10;;;1.00;99.90;;;;;;4974499;28;20037;-82
2024/01/16 09:14:53;;;;;;;21.07;11.47;;;1.00;99.90;;;;;;4973727;28;20030;-85
2024/01/16 09:17:20;;;;;;;18.73;10.53;;;1.00;99.90;;;;;;4957566;28;20030;-87
2024/01/16 09:19:46;;;;;;;19.73;11.00;;;1.10;99.90;;;;;;5008886;28;20045;-84
2024/01/16 09:22:15;;;;;;;18.83;10.33;;;1.10;99.90;;;;;;4978639;28;20042;-81
2024/01/16 09:24:41;;;;;;;17.20;10.70;;;1.10;99.90;;;;;;4993905;28;20606;-80
2024/01/16 09:27:09;;;;;;;17.20;9.73;;;1.20;99.90;;;;;;5009496;28;20046;-84
2024/01/16 09:29:36;;;;;;;17.57;10.10;;;1.20;99.90;;;;;;4978106;28;20041;-78
2024/01/16 09:32:03;;;;;;;17.30;10.03;;;1.20;99.90;;;;;;4977962;28;20515;-85
2024/01/16 09:34:29;;;;;;;17.45;9.40;;;1.20;99.90;;;;;;4977443;28;20030;-84
2024/01/16 09:36:59;;;;;;;16.20;8.37;;;1.30;99.90;;;;;;4961234;28;20047;-86
2024/01/16 09:39:25;;;;;;;18.67;8.70;;;1.30;99.90;;;;;;4994109;28;20034;-83
2024/01/16 09:41:51;;;;;;;16.10;8.00;;;1.30;99.90;;;;;;4994921;28;20038;-83
2024/01/16 09:44:18;;;;;;;15.07;8.03;;;1.30;99.90;;;;;;4961366;28;20041;-85
2024/01/16 09:46:46;;;;;;;18.47;8.13;;;1.30;99.90;;;;;;4960432;28;20104;-89
2024/01/16 09:49:15;;;;;;;15.45;7.10;;;1.40;99.90;;;;;;4962320;28;20045;-82
2024/01/16 09:51:43;;;;;;;16.97;7.37;;;1.40;99.90;;;;;;5010211;28;21028;-83
2024/01/16 09:54:10;;;;;;;11.40;6.50;;;1.40;99.90;;;;;;4992077;28;20049;-80
2024/01/16 09:56:45;;;;;;;15.40;6.90;;;1.40;99.90;;;;;;4975767;28;20049;-77
2024/01/16 09:59:18;;;;;;;11.17;6.57;;;1.30;99.90;;;;;;4979189;28;20437;-88
2024/01/16 10:01:45;;;;;;;14.20;6.60;;;1.40;99.90;;;;;;4965207;28;20045;-84
2024/01/16 10:04:12;;;;;;;15.73;6.27;;;1.30;99.90;;;;;;4947354;28;20045;-86
2024/01/16 10:06:39;;;;;;;14.40;7.53;;;1.30;99.90;;;;;;5012118;28;20038;-85
2024/01/16 10:09:06;;;;;;;11.50;5.87;;;1.30;99.90;;;;;;4980570;28;20038;-83
2024/01/16 10:11:34;;;;;;;16.07;6.13;;;1.30;99.90;;;;;;4994929;28;20034;-84
2024/01/16 10:14:01;;;;;;;21.80;6.00;;;1.30;99.90;;;;;;4964704;28;20045;-82
2024/01/16 10:17:09;;;;;;;12.43;6.00;;;1.40;99.90;;;;;;4962816;28;20034;-84
2024/01/16 10:19:48;;;;;;;8.27;4.95;;;1.40;99.90;;;;;;4928455;28;20045;-84
2024/01/16 10:22:24;;;;;;;12.07;4.77;;;1.60;99.90;;;;;;4939962;28;20327;-85
2024/01/16 10:25:16;;;;;;;15.50;5.10;;;1.70;99.90;;;;;;4925329;28;20127;-83
2024/01/16 10:27:43;;;;;;;11.77;5.37;;;1.70;99.90;;;;;;4958018;28;20057;-87
2024/01/16 10:30:12;;;;;;;15.83;6.57;;;1.70;99.90;;;;;;4941899;28;20043;-86
2024/01/16 10:32:41;;;;;;;9.60;5.17;;;1.70;99.90;;;;;;4939788;28;20214;-84
2024/01/16 10:35:10;;;;;;;12.27;4.60;;;1.80;99.90;;;;;;4919288;28;20083;-86
2024/01/16 10:37:46;;;;;;;13.15;4.75;;;2.10;99.90;;;;;;4951693;28;20043;-84
2024/01/16 10:40:20;;;;;;;10.30;3.58;;;2.40;99.90;;;;;;4924371;28;20050;-85
2024/01/16 10:42:58;;;;;;;14.25;4.63;;;2.50;99.90;;;;;;4956083;28;20475;-81
2024/01/16 10:45:24;;;;;;;8.25;3.95;;;2.50;99.90;;;;;;4920427;28;20567;-84
2024/01/16 10:48:04;;;;;;;7.43;3.65;;;2.50;99.90;;;;;;4943430;28;20046;-84
2024/01/16 10:50:35;;;;;;;8.35;3.60;;;2.60;99.90;;;;;;4954639;28;20344;-85
2024/01/16 10:53:06;;;;;;;8.27;3.72;;;2.50;99.90;;;;;;4944697;28;20042;-86
2024/01/16 10:55:54;;;;;;;8.07;3.53;;;2.40;99.90;;;;;;4976521;28;21626;-83
2024/01/16 10:58:23;;;;;;;7.65;3.67;;;2.30;99.90;;;;;;4960436;28;20049;-80
2024/01/16 11:00:53;;;;;;;9.17;4.20;;;2.20;99.90;;;;;;5007997;28;20046;-85
2024/01/16 11:03:33;;;;;;;15.82;4.28;;;2.10;99.90;;;;;;4974284;28;20061;-78
2024/01/16 11:06:01;;;;;;;7.95;4.68;;;2.10;99.90;;;;;;4986280;28;20050;-85
2024/01/16 11:08:32;;;;;;;7.60;3.83;;;2.10;99.90;;;;;;4990688;28;20030;-78
2024/01/16 11:11:00;;;;;;;7.57;4.07;;;2.10;99.90;;;;;;4975979;28;20030;-84
2024/01/16 11:13:27;;;;;;;11.18;4.15;;;2.20;99.90;;;;;;4991230;28;20053;-84
2024/01/16 11:15:55;;;;;;;9.93;4.10;;;2.30;99.90;;;;;;4968241;28;20038;-81
2024/01/16 11:18:22;;;;;;;9.80;3.38;;;2.40;99.90;;;;;;4960244;28;20524;-85
2024/01/16 11:20:49;;;;;;;8.30;3.60;;;2.50;99.90;;;;;;4983608;28;20054;-79
2024/01/16 11:23:16;;;;;;;9.00;3.38;;;2.60;99.90;;;;;;4985018;28;20037;-82
2024/01/16 11:25:42;;;;;;;9.80;3.92;;;2.60;99.90;;;;;;5000298;28;20657;-82
2024/01/16 11:28:11;;;;;;;9.77;3.70;;;2.60;99.90;;;;;;4982213;28;21137;-83
2024/01/16 11:30:39;;;;;;;11.23;3.05;;;2.70;99.90;;;;;;4951212;28;20031;-85
2024/01/16 11:33:05;;;;;;;8.43;3.42;;;2.70;99.90;;;;;;4952013;28;20042;-86
2024/01/16 11:35:42;;;;;;;7.97;2.87;;;2.70;99.90;;;;;;4982634;28;20042;-82
2024/01/16 11:38:20;;;;;;;8.48;3.05;;;2.70;99.90;;;;;;4966287;28;20061;-84
2024/01/16 11:40:47;;;;;;;7.22;3.10;;;2.60;99.90;;;;;;4999391;28;20039;-84
2024/01/16 11:43:32;;;;;;;10.60;2.75;;;2.50;99.90;;;;;;4981690;28;20131;-87
2024/01/16 11:46:00;;;;;;;6.43;2.67;;;2.50;99.90;;;;;;4964085;28;20035;-81
2024/01/16 11:48:26;;;;;;;8.07;3.03;;;2.50;99.90;;;;;;4950184;28;20037;-84
2024/01/16 11:50:54;;;;;;;7.15;2.85;;;2.50;99.90;;;;;;4953250;28;20037;-80
2024/01/16 11:53:38;;;;;;;9.02;3.22;;;2.50;99.90;;;;;;4967525;28;20620;-76
2024/01/16 11:56:50;;;;;;;9.03;3.43;;;2.40;99.90;;;;;;4968164;28;20401;-83
2024/01/16 11:59:53;;;;;;;7.30;3.00;;;2.40;99.90;;;;;;4922297;28;20039;-83
2024/01/16 12:02:38;;;;;;;10.88;3.90;;;2.30;99.90;;;;;;4928733;29;20047;-81
2024/01/16 12:05:06;;;;;;;8.73;3.17;;;2.30;99.90;;;;;;4896306;29;20039;-83
2024/01/16 12:07:53;;;;;;;9.23;3.83;;;2.20;99.90;;;;;;4880018;29;20054;-84
2024/01/16 12:10:22;;;;;;;8.48;3.38;;;2.30;99.90;;;;;;4907307;29;21467;-81
2024/01/16 12:12:50;;;;;;;13.50;3.97;;;2.30;99.90;;;;;;4926343;28;20039;-83
2024/01/16 12:15:19;;;;;;;14.90;4.60;;;2.40;99.90;;;;;;4917594;29;20083;-86
2024/01/16 12:18:03;;;;;;;9.67;3.97;;;2.30;99.90;;;;;;4932280;28;20102;-85
2024/01/16 12:20:31;;;;;;;12.77;4.20;;;2.30;99.90;;;;;;4932935;28;20047;-87
2024/01/16 12:23:05;;;;;;;10.43;3.78;;;2.30;99.90;;;;;;4916424;29;20039;-82
2024/01/16 12:25:34;;;;;;;6.03;3.40;;;2.40;99.90;;;;;;4900432;29;20486;-83
2024/01/16 12:28:02;;;;;;;7.97;3.50;;;2.40;99.90;;;;;;4913309;28;20048;-85
2024/01/16 12:30:31;;;;;;;10.40;3.40;;;2.50;99.90;;;;;;4900197;29;20047;-83
2024/01/16 12:33:12;;;;;;;10.63;3.83;;;2.50;99.90;;;;;;4913643;28;20051;-84
2024/01/16 12:35:40;;;;;;;8.73;3.83;;;2.60;99.90;;;;;;4955795;28;20041;-81
2024/01/16 12:38:12;;;;;;;12.70;4.37;;;2.70;99.90;;;;;;5000956;28;20046;-79
2024/01/16 12:40:47;;;;;;;9.90;4.22;;;2.90;99.90;;;;;;4984477;28;20034;-81
2024/01/16 12:43:18;;;;;;;13.68;7.00;;;3.00;99.90;;;;;;4971515;28;20037;-79
2024/01/16 12:45:45;;;;;;;11.23;5.30;;;3.20;99.90;;;;;;4992495;28;20031;-79
2024/01/16 12:48:12;;;;;;;9.20;4.30;;;3.30;99.90;;;;;;4975323;28;20042;-85
2024/01/16 12:50:38;;;;;;;7.07;3.17;;;3.40;99.90;;;;;;4970289;28;20503;-80
2024/01/16 12:53:08;;;;;;;7.70;3.40;;;3.30;99.90;;;;;;4987932;28;20068;-87
2024/01/16 12:55:37;;;;;;;11.57;3.90;;;3.30;99.90;;;;;;4955488;28;20045;-83